Time;durP1;ratioP1;P1;durP2;ratioP2;P2;SDS_P1;SDS_P2;PMS_P1;PMS_P2;Temp;Humidity;BMP_temperature;BMP_pressure;BME280_temperature;BME280_humidity;BME280_pressure;Samples;Min_cycle;Max_cycle;Signal;HPM_P1;HPM_P2
2021/12/13 00:01:30;;;;;;;9.05;2.25;;;;;;;17.71;40.96;101198.59;4862210;29;20703;-87
2021/12/13 00:04:09;;;;;;;3.10;1.23;;;;;;;17.95;40.38;101200.47;4861999;29;20033;-78
2021/12/13 00:06:45;;;;;;;6.38;1.42;;;;;;;18.00;40.13;101211.28;4845431;29;20040;-78
2021/12/13 00:09:14;;;;;;;7.18;2.08;;;;;;;17.92;40.31;101223.28;4862097;29;20178;-88
2021/12/13 00:11:44;;;;;;;12.10;1.90;;;;;;;18.13;39.74;101223.06;4862231;29;20061;-78
2021/12/13 00:14:17;;;;;;;3.35;1.10;;;;;;;18.09;39.77;101237.97;4862383;29;20359;-79
2021/12/13 00:16:49;;;;;;;6.68;1.65;;;;;;;18.18;39.39;101246.91;4861969;29;20030;-79
2021/12/13 00:19:21;;;;;;;5.40;1.80;;;;;;;17.89;39.98;101245.28;4845629;29;20141;-78
2021/12/13 00:21:55;;;;;;;4.57;1.08;;;;;;;18.05;39.49;101256.41;4861768;29;20056;-79
2021/12/13 00:24:25;;;;;;;4.13;1.90;;;;;;;18.20;39.20;101263.97;4862215;29;20118;-88
2021/12/13 00:27:02;;;;;;;8.05;1.60;;;;;;;18.12;39.27;101270.44;4861885;29;20093;-78
2021/12/13 00:29:40;;;;;;;5.10;1.33;;;;;;;18.11;39.27;101269.66;4861721;29;20109;-84
2021/12/13 00:32:14;;;;;;;8.10;1.80;;;;;;;18.16;39.23;101282.44;4861356;29;20033;-78
2021/12/13 00:34:48;;;;;;;4.22;1.50;;;;;;;18.13;39.34;101286.69;4861634;29;20033;-78
2021/12/13 00:37:22;;;;;;;5.28;1.25;;;;;;;18.13;39.32;101286.69;4861373;29;20029;-78
2021/12/13 00:40:12;;;;;;;12.43;2.00;;;;;;;18.14;39.33;101287.53;4861540;29;20440;-78
2021/12/13 00:42:43;;;;;;;7.00;2.58;;;;;;;18.02;39.74;101297.44;4844348;29;20042;-78
2021/12/13 00:45:12;;;;;;;6.80;1.40;;;;;;;17.96;39.84;101307.13;4861489;29;20069;-78
2021/12/13 00:47:40;;;;;;;9.23;2.27;;;;;;;17.94;39.88;101303.91;4844764;29;20073;-87
2021/12/13 00:50:09;;;;;;;4.85;1.60;;;;;;;17.69;40.49;101308.66;4844782;29;20261;-78
2021/12/13 00:52:38;;;;;;;5.72;1.63;;;;;;;17.77;40.38;101311.69;4861307;29;20041;-79
2021/12/13 00:55:14;;;;;;;7.80;1.77;;;;;;;17.89;40.29;101312.44;4861051;29;20544;-78
2021/12/13 00:57:46;;;;;;;7.85;1.77;;;;;;;17.62;40.64;101313.16;4861128;29;20026;-78
2021/12/13 01:00:17;;;;;;;8.70;2.17;;;;;;;17.55;40.86;101324.78;4860934;29;20090;-78
2021/12/13 01:02:48;;;;;;;12.98;2.40;;;;;;;17.68;40.60;101317.28;4860968;29;20075;-78
2021/12/13 01:05:24;;;;;;;5.05;2.08;;;;;;;17.68;40.33;101323.63;4860900;29;20037;-78
2021/12/13 01:08:10;;;;;;;5.43;1.63;;;;;;;17.56;40.49;101337.44;4861324;29;20036;-78
2021/12/13 01:10:42;;;;;;;8.27;2.22;;;;;;;17.72;40.24;101338.38;4861273;29;20029;-78
2021/12/13 01:13:19;;;;;;;8.23;2.22;;;;;;;17.54;40.70;101337.00;4844621;29;20528;-87
2021/12/13 01:15:57;;;;;;;9.68;2.40;;;;;;;17.64;40.28;101344.81;4844625;29;20045;-88
2021/12/13 01:19:26;;;;;;;8.50;2.17;;;;;;;17.45;40.73;101345.38;4844492;29;20029;-79
2021/12/13 01:21:58;;;;;;;12.43;2.25;;;;;;;17.53;40.54;101354.69;4834344;29;20504;-82
2021/12/13 01:27:38;;;;;;;8.13;1.67;;;;;;;17.42;40.70;101357.13;4829427;29;20045;-88
2021/12/13 01:30:12;;;;;;;8.13;1.92;;;;;;;17.46;40.54;101354.50;4844631;29;20034;-88
2021/12/13 01:32:48;;;;;;;7.85;1.70;;;;;;;17.45;40.41;101364.72;4860889;29;20033;-87
2021/12/13 01:35:20;;;;;;;10.25;1.98;;;;;;;17.44;40.42;101365.88;4861079;29;20034;-77
2021/12/13 01:37:53;;;;;;;9.45;2.45;;;;;;;17.41;40.63;101377.63;4844034;29;20029;-77
2021/12/13 01:40:23;;;;;;;9.63;2.50;;;;;;;17.31;40.65;101375.31;4844513;29;20037;-85
2021/12/13 01:43:00;;;;;;;9.45;2.25;;;;;;;17.26;40.89;101378.28;4844268;29;20405;-78
2021/12/13 01:45:28;;;;;;;16.27;2.50;;;;;;;17.27;41.00;101390.13;4860756;29;20102;-87
2021/12/13 01:47:54;;;;;;;6.45;1.98;;;;;;;17.15;41.26;101388.97;4860363;29;20441;-78
2021/12/13 01:50:31;;;;;;;8.82;2.33;;;;;;;17.24;41.01;101393.59;4859535;29;20034;-78
2021/12/13 01:53:00;;;;;;;9.43;2.53;;;;;;;17.14;41.23;101403.91;4844084;29;20545;-87
2021/12/13 01:55:35;;;;;;;11.20;2.83;;;;;;;17.25;41.11;101404.28;4860305;29;20030;-78
2021/12/13 02:01:11;;;;;;;10.73;2.45;;;;;;;17.34;40.71;101412.47;4860505;29;20442;-79
2021/12/13 02:03:57;;;;;;;9.35;2.58;;;;;;;17.30;40.95;101428.91;4844290;29;20553;-78
2021/12/13 02:06:36;;;;;;;8.07;1.85;;;;;;;17.35;40.83;101441.72;4860210;29;20041;-87
2021/12/13 02:09:14;;;;;;;9.10;2.70;;;;;;;17.32;41.00;101442.41;4860391;29;20033;-79
2021/12/13 02:11:43;;;;;;;9.55;2.00;;;;;;;17.22;41.19;101448.34;4863261;29;20104;-77
2021/12/13 02:14:16;;;;;;;14.00;3.92;;;;;;;17.34;40.98;101451.94;4864345;29;20029;-79
2021/12/13 02:16:57;;;;;;;8.43;2.42;;;;;;;17.39;40.75;101456.47;4847386;29;20033;-78
2021/12/13 02:19:46;;;;;;;7.35;1.90;;;;;;;17.35;40.99;101452.75;4847366;29;20026;-87
2021/12/13 02:22:38;;;;;;;8.48;2.05;;;;;;;17.39;40.80;101450.94;4853595;29;20044;-78
2021/12/13 02:25:51;;;;;;;8.40;3.47;;;;;;;17.36;40.89;101465.41;4847595;29;20037;-78
2021/12/13 02:28:23;;;;;;;15.15;2.45;;;;;;;17.33;40.99;101463.34;4806719;29;20207;-78
2021/12/13 02:30:57;;;;;;;10.95;2.85;;;;;;;17.36;40.67;101465.41;4806359;29;20554;-81
2021/12/13 02:33:34;;;;;;;9.40;2.53;;;;;;;17.25;41.24;101462.28;4838415;29;20041;-87
2021/12/13 02:36:11;;;;;;;10.10;2.33;;;;;;;17.33;40.92;101466.13;4847522;29;20025;-87
2021/12/13 02:38:40;;;;;;;8.43;2.28;;;;;;;17.29;41.30;101470.69;4863883;29;20145;-78
2021/12/13 02:41:08;;;;;;;14.45;2.88;;;;;;;17.27;41.10;101470.22;4846726;29;20511;-78
2021/12/13 02:43:43;;;;;;;8.57;2.38;;;;;;;17.16;41.40;101462.38;4847209;29;20393;-86
2021/12/13 02:46:10;;;;;;;13.95;2.75;;;;;;;17.14;41.51;101475.69;4863460;29;20044;-78
2021/12/13 02:48:49;;;;;;;14.60;3.85;;;;;;;17.22;41.33;101487.00;4846960;29;20029;-83
2021/12/13 02:51:17;;;;;;;14.13;3.35;;;;;;;17.24;41.28;101493.03;4863802;29;20496;-88
2021/12/13 02:53:49;;;;;;;11.60;2.25;;;;;;;17.24;41.44;101495.78;4863407;29;20125;-86
2021/12/13 02:56:19;;;;;;;10.27;3.13;;;;;;;17.11;41.40;101492.16;4863229;29;20042;-87
2021/12/13 02:58:47;;;;;;;11.65;2.97;;;;;;;17.21;41.31;101483.44;4863295;29;20037;-87
2021/12/13 03:01:37;;;;;;;13.65;2.67;;;;;;;17.08;41.59;101490.88;4846914;29;20044;-79
2021/12/13 03:04:07;;;;;;;17.83;3.45;;;;;;;17.13;41.76;101489.84;4863281;29;20037;-87
2021/12/13 03:06:37;;;;;;;11.27;1.95;;;;;;;17.15;41.62;101493.91;4863317;29;20100;-87
2021/12/13 03:09:10;;;;;;;15.30;2.80;;;;;;;17.15;41.72;101487.56;4863215;29;20034;-88
2021/12/13 03:11:36;;;;;;;7.60;2.30;;;;;;;17.02;41.95;101494.19;4863317;29;20029;-77
2021/12/13 03:14:16;;;;;;;6.20;2.10;;;;;;;17.07;41.83;101492.00;4863167;29;20100;-86
2021/12/13 03:16:48;;;;;;;;;;;;;;;16.96;41.94;101495.53;4846734;29;20034;-78
2021/12/13 03:19:29;;;;;;;8.77;2.17;;;;;;;16.81;42.30;101516.28;4846420;29;19916;-78
2021/12/13 03:22:19;;;;;;;8.13;3.00;;;;;;;16.99;41.91;101497.59;4862952;29;20112;-83
2021/12/13 03:25:07;;;;;;;13.13;3.13;;;;;;;16.90;42.16;101504.00;4853580;29;20046;-78
2021/12/13 03:28:01;;;;;;;13.20;2.42;;;;;;;16.77;42.33;101505.09;4863004;29;20076;-87
2021/12/13 03:30:32;;;;;;;7.47;2.40;;;;;;;16.95;41.71;101508.53;4863229;29;20037;-77
2021/12/13 03:33:08;;;;;;;8.32;2.60;;;;;;;16.98;42.08;101499.56;4863087;29;20074;-78
2021/12/13 03:35:41;;;;;;;10.60;2.58;;;;;;;16.94;42.11;101490.34;4863070;29;20090;-87
2021/12/13 03:38:13;;;;;;;12.88;2.80;;;;;;;17.06;41.76;101504.19;4862971;29;20082;-88
2021/12/13 03:40:40;;;;;;;15.48;3.58;;;;;;;17.09;41.58;101506.31;4862862;29;20021;-81
2021/12/13 03:43:11;;;;;;;11.20;2.65;;;;;;;17.04;41.89;101509.25;4845696;29;20393;-78
2021/12/13 03:46:01;;;;;;;9.90;2.05;;;;;;;16.81;42.24;101519.03;4862447;29;20144;-78
2021/12/13 03:48:28;;;;;;;13.48;2.38;;;;;;;16.35;43.24;101521.56;4846375;29;20036;-77
2021/12/13 03:50:59;;;;;;;10.07;2.20;;;;;;;16.67;42.45;101521.22;4862708;29;20081;-78
2021/12/13 03:53:27;;;;;;;10.82;3.45;;;;;;;16.72;42.45;101518.28;4862820;29;20034;-78
2021/12/13 03:56:01;;;;;;;5.38;2.13;;;;;;;16.71;42.48;101522.19;4845872;29;20045;-78
2021/12/13 03:58:30;;;;;;;13.45;2.97;;;;;;;16.65;42.63;101518.78;4845783;29;20070;-77
2021/12/13 04:01:06;;;;;;;7.95;2.50;;;;;;;16.74;42.52;101519.56;4862261;29;20032;-77
2021/12/13 04:03:34;;;;;;;7.82;1.83;;;;;;;16.79;42.36;101522.13;4845321;29;20393;-78
2021/12/13 04:06:00;;;;;;;8.50;3.63;;;;;;;16.75;42.54;101534.16;4862003;29;20076;-79
2021/12/13 04:08:26;;;;;;;7.80;2.30;;;;;;;16.89;42.10;101530.00;4861849;29;20075;-87
2021/12/13 04:11:08;;;;;;;12.68;2.40;;;;;;;16.88;42.00;101535.88;4861939;29;20030;-78
2021/12/13 04:14:07;;;;;;;12.15;2.80;;;;;;;17.01;41.89;101542.28;4862180;29;20497;-77
2021/12/13 04:16:48;;;;;;;16.98;2.60;;;;;;;17.04;41.85;101542.41;4859773;29;20037;-78
2021/12/13 04:19:23;;;;;;;15.63;3.58;;;;;;;16.95;42.06;101544.41;4861876;29;20500;-78
2021/12/13 04:21:59;;;;;;;8.43;1.88;;;;;;;16.78;42.59;101548.13;4861813;29;20043;-78
2021/12/13 04:24:31;;;;;;;9.25;1.95;;;;;;;16.98;42.11;101560.28;4861595;29;20034;-77
2021/12/13 04:27:02;;;;;;;10.38;2.67;;;;;;;16.76;42.66;101564.19;4861627;29;20055;-77
2021/12/13 04:29:32;;;;;;;8.48;2.90;;;;;;;16.95;42.31;101572.03;4861632;29;20065;-77
2021/12/13 04:31:59;;;;;;;;;;;;;;;16.97;42.19;101574.44;4862189;29;20021;-77
2021/12/13 04:34:27;;;;;;;11.82;1.90;;;;;;;17.06;42.02;101572.41;4861385;29;19916;-78
2021/12/13 04:36:57;;;;;;;8.30;2.10;;;;;;;17.09;41.94;101561.53;4861927;29;20108;-77
2021/12/13 04:39:29;;;;;;;12.35;2.40;;;;;;;17.08;41.85;101565.44;4861724;29;20033;-88
2021/12/13 04:41:59;;;;;;;13.10;2.70;;;;;;;17.17;41.88;101560.66;4861418;29;20040;-78
2021/12/13 04:44:43;;;;;;;10.80;2.78;;;;;;;17.12;42.00;101573.84;4861744;29;20052;-78
2021/12/13 04:47:16;;;;;;;14.05;3.20;;;;;;;17.11;41.85;101575.00;4861604;29;20034;-77
2021/12/13 04:49:51;;;;;;;13.52;2.45;;;;;;;17.26;41.48;101571.63;4845099;29;20481;-77
2021/12/13 04:52:20;;;;;;;18.95;3.40;;;;;;;17.26;41.63;101585.44;4861833;29;20389;-77
2021/12/13 04:54:51;;;;;;;10.55;2.08;;;;;;;17.34;41.50;101594.78;4844823;29;20052;-77
2021/12/13 04:57:18;;;;;;;8.43;2.08;;;;;;;17.38;41.46;101595.72;4861613;29;20101;-77
2021/12/13 05:00:00;;;;;;;7.78;2.30;;;;;;;17.19;41.68;101597.00;4845199;29;20032;-87
2021/12/13 05:02:27;;;;;;;5.80;2.22;;;;;;;17.31;41.47;101601.81;4861087;29;20061;-87
2021/12/13 05:04:56;;;;;;;6.63;1.95;;;;;;;17.35;41.29;101607.44;4861280;29;20025;-78
2021/12/13 05:07:24;;;;;;;12.90;2.55;;;;;;;17.26;41.63;101604.75;4861558;29;20057;-77
2021/12/13 05:09:52;;;;;;;18.55;3.08;;;;;;;17.23;41.56;101610.13;4861253;29;20026;-78
2021/12/13 05:12:25;;;;;;;13.23;3.33;;;;;;;17.17;41.77;101610.34;4861539;29;20061;-84
2021/12/13 05:15:05;;;;;;;11.30;2.83;;;;;;;17.19;41.56;101608.06;4861113;29;20021;-77
2021/12/13 05:17:44;;;;;;;18.08;3.67;;;;;;;17.17;41.87;101596.53;4861555;29;20053;-77
2021/12/13 05:20:28;;;;;;;13.77;2.75;;;;;;;17.16;41.75;101605.97;4861154;29;20038;-78
2021/12/13 05:22:53;;;;;;;14.50;3.13;;;;;;;17.06;42.02;101609.13;4861227;29;20077;-78
2021/12/13 05:25:25;;;;;;;12.13;2.50;;;;;;;17.04;42.01;101608.66;4861315;29;20041;-78
2021/12/13 05:27:59;;;;;;;14.15;3.03;;;;;;;17.07;41.83;101594.16;4844585;29;20045;-78
2021/12/13 05:30:25;;;;;;;16.75;3.35;;;;;;;17.07;41.87;101591.41;4860917;29;20031;-88
2021/12/13 05:32:57;;;;;;;12.43;2.20;;;;;;;17.02;41.78;101601.88;4861387;29;20021;-78
2021/12/13 05:35:29;;;;;;;11.13;2.50;;;;;;;17.12;41.78;101605.03;4860769;29;20029;-88
2021/12/13 05:37:59;;;;;;;14.23;2.70;;;;;;;17.10;41.71;101612.84;4844114;29;20041;-77
2021/12/13 05:40:44;;;;;;;9.82;2.85;;;;;;;17.07;41.89;101618.22;4859053;29;20552;-77
2021/12/13 05:43:21;;;;;;;10.65;2.70;;;;;;;17.09;41.69;101630.56;4860533;29;20036;-77
2021/12/13 05:45:56;;;;;;;8.30;2.90;;;;;;;17.03;41.79;101631.91;4843154;29;20097;-77
2021/12/13 05:48:53;;;;;;;8.90;3.15;;;;;;;17.03;41.79;101640.19;4844565;29;20117;-86
2021/12/13 05:51:21;;;;;;;11.05;2.92;;;;;;;17.09;41.57;101638.03;4838370;29;20089;-76
2021/12/13 05:53:54;;;;;;;10.30;2.25;;;;;;;17.06;41.61;101639.50;4860774;29;20557;-76
2021/12/13 05:56:20;;;;;;;17.13;3.15;;;;;;;17.04;41.67;101641.78;4860441;29;20125;-76
2021/12/13 05:58:55;;;;;;;13.20;2.55;;;;;;;17.05;41.54;101648.94;4844249;29;20140;-76
2021/12/13 06:01:28;;;;;;;12.43;2.65;;;;;;;16.94;41.76;101657.94;4860846;29;20053;-76
2021/12/13 06:04:06;;;;;;;12.77;3.08;;;;;;;16.91;41.84;101662.97;4860526;29;20435;-76
2021/12/13 06:06:33;;;;;;;10.30;2.40;;;;;;;17.01;41.87;101672.03;4843802;29;20029;-77
2021/12/13 06:08:59;;;;;;;12.75;4.97;;;;;;;16.90;41.93;101674.34;4860518;29;20061;-75
2021/12/13 06:11:33;;;;;;;13.68;3.38;;;;;;;16.87;41.84;101680.56;4843736;29;20049;-76
2021/12/13 06:14:04;;;;;;;19.35;7.18;;;;;;;16.85;42.16;101680.06;4860331;29;20034;-78
2021/12/13 06:17:11;;;;;;;18.70;10.70;;;;;;;16.87;41.83;101686.88;4844141;29;20057;-78
2021/12/13 06:19:54;;;;;;;15.10;8.27;;;;;;;16.91;41.75;101689.75;4823251;29;20041;-77
2021/12/13 06:22:22;;;;;;;22.20;10.48;;;;;;;16.90;41.76;101691.72;4843508;29;20726;-76
2021/12/13 06:24:50;;;;;;;41.35;29.20;;;;;;;16.98;41.88;101681.78;4860088;29;20033;-78
2021/12/13 06:27:27;;;;;;;22.80;11.18;;;;;;;16.84;42.07;101679.25;4843548;29;20479;-81
2021/12/13 06:29:55;;;;;;;13.38;5.65;;;;;;;16.91;42.01;101670.44;4859917;29;20378;-77
2021/12/13 06:32:30;;;;;;;14.82;4.90;;;;;;;16.88;41.96;101674.69;4860264;29;20040;-83
2021/12/13 06:34:59;;;;;;;10.68;2.58;;;;;;;16.87;42.05;101670.31;4843584;29;20095;-78
2021/12/13 06:37:34;;;;;;;11.15;2.40;;;;;;;16.89;42.18;101678.25;4860353;29;20026;-78
2021/12/13 06:40:31;;;;;;;9.70;2.60;;;;;;;16.91;41.68;101678.72;4860166;29;20036;-77
2021/12/13 06:42:59;;;;;;;15.35;4.07;;;;;;;16.87;41.93;101675.84;4843923;29;20029;-81
2021/12/13 06:45:30;;;;;;;13.55;2.58;;;;;;;16.95;41.93;101678.88;4859655;29;20052;-88
2021/12/13 06:47:58;;;;;;;10.55;2.53;;;;;;;16.88;42.08;101677.44;4860022;29;20040;-84
2021/12/13 06:50:32;;;;;;;11.02;4.10;;;;;;;16.86;42.22;101685.25;4843807;29;20119;-86
2021/12/13 06:53:14;;;;;;;11.63;3.10;;;;;;;16.86;42.19;101679.75;4860084;29;20038;-80
2021/12/13 06:55:40;;;;;;;11.82;2.63;;;;;;;16.70;42.30;101686.97;4843980;29;20033;-76
2021/12/13 06:58:22;;;;;;;11.50;2.88;;;;;;;16.78;42.23;101682.56;4846277;29;20034;-78
2021/12/13 07:00:52;;;;;;;13.30;2.40;;;;;;;16.82;42.20;101677.97;4863616;29;20049;-86
2021/12/13 07:03:23;;;;;;;22.92;3.88;;;;;;;16.68;42.49;101677.34;4863329;29;20043;-77
2021/12/13 07:05:52;;;;;;;15.40;3.15;;;;;;;16.79;42.17;101668.41;4846868;29;20052;-84
2021/12/13 07:08:32;;;;;;;11.60;2.38;;;;;;;16.79;42.22;101670.38;4846724;29;20390;-86
2021/12/13 07:11:02;;;;;;;14.82;2.83;;;;;;;16.84;42.26;101654.41;4863663;29;20033;-77
2021/12/13 07:13:48;;;;;;;7.65;1.80;;;;;;;16.67;42.27;101661.94;4863572;29;20274;-87
2021/12/13 07:16:18;;;;;;;18.30;3.40;;;;;;;16.77;42.11;101667.09;4863784;29;20029;-87
2021/12/13 07:18:54;;;;;;;11.40;2.78;;;;;;;16.66;42.67;101663.88;4863432;29;20030;-86
2021/12/13 07:21:46;;;;;;;17.02;3.50;;;;;;;16.74;42.41;101684.34;4862850;29;20033;-78
2021/12/13 07:24:32;;;;;;;12.13;3.25;;;;;;;16.72;42.38;101668.13;4862632;29;20121;-77
2021/12/13 07:27:07;;;;;;;11.45;3.22;;;;;;;16.73;42.53;101678.00;4846166;29;20128;-86
2021/12/13 07:29:44;;;;;;;7.30;1.80;;;;;;;16.80;42.25;101680.25;4846243;29;20052;-77
2021/12/13 07:32:30;;;;;;;10.15;2.67;;;;;;;16.71;42.50;101698.81;4862659;29;20100;-77
2021/12/13 07:35:01;;;;;;;14.95;2.92;;;;;;;16.77;42.37;101697.47;4862804;29;20064;-77
2021/12/13 07:37:41;;;;;;;13.23;2.70;;;;;;;16.50;42.82;101713.28;4862443;29;20065;-80
2021/12/13 07:40:32;;;;;;;13.23;2.33;;;;;;;16.68;42.56;101719.56;4846033;29;20032;-77
2021/12/13 07:43:06;;;;;;;12.52;2.53;;;;;;;16.70;42.53;101724.75;4845702;29;20501;-76
2021/12/13 07:45:40;;;;;;;15.05;3.60;;;;;;;16.71;42.58;101718.13;4865806;29;20044;-77
2021/12/13 07:48:15;;;;;;;9.77;2.80;;;;;;;16.73;42.76;101724.13;4846143;29;20026;-86
2021/12/13 07:50:43;;;;;;;8.50;2.40;;;;;;;16.84;42.38;101725.34;4844351;29;20037;-84
2021/12/13 07:53:14;;;;;;;10.80;2.85;;;;;;;16.73;42.49;101730.44;4862700;29;20033;-80
2021/12/13 07:55:49;;;;;;;7.78;2.20;;;;;;;16.61;42.83;101738.56;4861199;29;20040;-77
2021/12/13 07:58:31;;;;;;;15.10;2.33;;;;;;;16.78;42.26;101740.50;4848672;29;20036;-81
2021/12/13 08:01:07;;;;;;;12.02;2.92;;;;;;;16.80;42.51;101740.97;4862160;29;20646;-82
2021/12/13 08:03:33;;;;;;;9.40;2.13;;;;;;;16.76;42.54;101740.00;4862866;29;20037;-86
2021/12/13 08:06:06;;;;;;;10.98;2.35;;;;;;;16.75;42.63;101749.44;4845586;29;20052;-86
2021/12/13 08:08:34;;;;;;;23.08;4.78;;;;;;;16.84;42.43;101753.78;4844014;29;20101;-75
2021/12/13 08:11:00;;;;;;;10.32;3.53;;;;;;;16.82;42.43;101769.03;4845106;29;20177;-75
2021/12/13 08:13:30;;;;;;;11.52;3.70;;;;;;;16.78;42.60;101765.34;4862087;29;20041;-75
2021/12/13 08:16:06;;;;;;;10.57;2.28;;;;;;;16.73;42.51;101766.31;4861643;29;20033;-75
2021/12/13 08:18:42;;;;;;;10.85;2.40;;;;;;;16.85;42.51;101774.75;4858417;29;20040;-84
2021/12/13 08:21:28;;;;;;;15.45;3.28;;;;;;;16.67;42.68;101775.88;4860582;29;20025;-74
2021/12/13 08:24:00;;;;;;;11.80;4.57;;;;;;;16.76;42.70;101789.69;4861054;29;20173;-76
2021/12/13 08:26:29;;;;;;;16.65;3.42;;;;;;;16.75;42.54;101799.09;4861291;29;20053;-75
2021/12/13 08:28:57;;;;;;;10.43;2.97;;;;;;;16.76;42.45;101801.53;4861956;29;20030;-82
2021/12/13 08:31:32;;;;;;;11.85;2.90;;;;;;;16.67;42.65;101797.97;4861640;29;20039;-74
2021/12/13 08:34:06;;;;;;;11.68;4.43;;;;;;;16.67;42.89;101797.16;4863706;29;20036;-74
2021/12/13 08:36:41;;;;;;;19.10;5.22;;;;;;;16.79;42.52;101808.38;4862904;29;20039;-74
2021/12/13 08:39:12;;;;;;;14.48;3.13;;;;;;;16.68;42.92;101815.31;4862949;29;20076;-74
2021/12/13 08:41:42;;;;;;;11.45;2.78;;;;;;;16.71;42.83;101814.72;4862789;29;20384;-76
2021/12/13 08:44:11;;;;;;;8.50;2.85;;;;;;;16.71;42.84;101804.50;4862405;29;20116;-72
2021/12/13 08:46:40;;;;;;;10.30;2.47;;;;;;;16.73;42.74;101813.25;4840605;29;20502;-71
2021/12/13 08:49:29;;;;;;;13.30;2.90;;;;;;;16.75;42.57;101822.00;4859574;29;20060;-72
2021/12/13 08:52:01;;;;;;;10.18;3.30;;;;;;;16.77;42.75;101827.97;4860901;29;20030;-72
2021/12/13 08:55:03;;;;;;;11.60;2.63;;;;;;;16.60;43.00;101841.78;4860528;29;20086;-72
2021/12/13 08:57:34;;;;;;;12.60;3.55;;;;;;;16.79;42.67;101838.72;4860714;29;20033;-71
2021/12/13 09:00:14;;;;;;;13.68;2.88;;;;;;;16.83;42.56;101847.94;4860765;29;20485;-72
2021/12/13 09:03:17;;;;;;;11.07;3.65;;;;;;;16.72;42.69;101869.56;4860893;29;20439;-77
2021/12/13 09:05:56;;;;;;;9.23;3.05;;;;;;;16.76;42.68;101873.28;4860715;29;20033;-75
2021/12/13 09:08:45;;;;;;;7.93;2.60;;;;;;;16.76;42.63;101869.72;4860684;29;20112;-71
2021/12/13 09:11:40;;;;;;;8.88;2.90;;;;;;;16.76;42.67;101866.97;4860792;29;20030;-75
2021/12/13 09:14:05;;;;;;;12.40;3.25;;;;;;;16.80;42.54;101874.28;4860559;29;20040;-72
2021/12/13 09:17:10;;;;;;;15.75;4.97;;;;;;;16.78;42.47;101867.47;4860606;29;20025;-72
2021/12/13 09:19:47;;;;;;;11.82;3.25;;;;;;;16.86;42.53;101864.69;4860181;29;20082;-72
2021/12/13 09:22:33;;;;;;;13.15;3.63;;;;;;;16.88;42.54;101867.09;4860475;29;20033;-72
2021/12/13 09:25:10;;;;;;;13.63;2.88;;;;;;;16.94;42.45;101870.50;4860341;29;20087;-72
2021/12/13 09:27:50;;;;;;;13.18;3.53;;;;;;;16.94;42.52;101868.56;4860266;29;20071;-71
2021/12/13 09:30:43;;;;;;;9.00;2.92;;;;;;;16.91;42.46;101870.00;4860690;29;20503;-71
2021/12/13 09:33:23;;;;;;;9.38;2.83;;;;;;;17.00;42.42;101867.22;4860358;29;20041;-71
2021/12/13 09:35:53;;;;;;;;;;;;;;;16.72;43.20;101877.03;4860757;29;20041;-71
2021/12/13 09:38:40;;;;;;;9.15;2.63;;;;;;;16.96;42.43;101869.03;4860059;29;19977;-71
2021/12/13 09:41:18;;;;;;;8.90;2.95;;;;;;;16.89;42.80;101877.00;4860231;29;20029;-72
2021/12/13 09:43:50;;;;;;;9.82;3.30;;;;;;;17.07;42.44;101873.06;4860220;29;20033;-72
2021/12/13 09:46:29;;;;;;;19.05;3.72;;;;;;;17.00;42.65;101867.22;4860339;29;20438;-72
2021/12/13 09:48:57;;;;;;;16.92;3.53;;;;;;;17.11;42.39;101873.22;4843264;29;20038;-71
2021/12/13 09:51:36;;;;;;;9.70;2.50;;;;;;;17.14;42.42;101872.53;4859814;29;20068;-71
2021/12/13 09:54:06;;;;;;;13.50;3.50;;;;;;;17.20;42.51;101871.22;4859937;29;20026;-72
2021/12/13 09:56:37;;;;;;;11.77;2.70;;;;;;;17.24;42.53;101876.91;4860095;29;20095;-71
2021/12/13 09:59:31;;;;;;;12.90;3.10;;;;;;;17.25;42.26;101884.06;4860141;29;20076;-71
2021/12/13 10:01:59;;;;;;;10.70;3.20;;;;;;;17.31;42.46;101879.97;4859510;29;20038;-72
2021/12/13 10:04:33;;;;;;;6.82;2.65;;;;;;;17.33;42.38;101875.75;4859830;29;20394;-72
2021/12/13 10:07:10;;;;;;;15.65;3.08;;;;;;;17.35;42.29;101886.44;4859885;29;20532;-72
2021/12/13 10:09:40;;;;;;;9.23;2.83;;;;;;;17.38;42.62;101878.31;4843151;29;20029;-71
2021/12/13 10:12:15;;;;;;;17.23;3.25;;;;;;;17.36;42.42;101890.84;4859313;29;20030;-71
2021/12/13 10:14:57;;;;;;;21.15;2.83;;;;;;;17.44;42.22;101889.97;4859986;29;20030;-72
2021/12/13 10:17:28;;;;;;;16.48;3.05;;;;;;;17.50;42.28;101885.91;4859977;29;20036;-71
2021/12/13 10:19:59;;;;;;;13.15;3.50;;;;;;;17.49;42.46;101892.56;4859512;29;20038;-72
2021/12/13 10:22:29;;;;;;;11.73;3.13;;;;;;;17.45;42.49;101892.41;4859984;29;20061;-72
2021/12/13 10:25:00;;;;;;;10.27;2.65;;;;;;;17.41;42.22;101897.00;4859784;29;20036;-71
2021/12/13 10:27:26;;;;;;;11.38;2.85;;;;;;;17.53;42.31;101912.84;4859618;29;20053;-71
2021/12/13 10:29:55;;;;;;;12.07;4.18;;;;;;;17.52;42.45;101905.72;4859742;29;20036;-72
2021/12/13 10:32:37;;;;;;;10.45;4.00;;;;;;;17.70;41.99;101904.53;4861492;29;20120;-71
2021/12/13 10:35:20;;;;;;;7.60;2.47;;;;;;;17.74;41.87;101907.44;4863336;29;20038;-73
2021/12/13 10:37:54;;;;;;;11.95;2.80;;;;;;;17.68;41.88;101909.56;4863330;29;20090;-71
2021/12/13 10:40:30;;;;;;;7.57;1.98;;;;;;;17.65;41.93;101918.50;4863331;29;20041;-72
2021/12/13 10:43:05;;;;;;;14.20;2.53;;;;;;;17.74;41.66;101916.53;4863303;29;20107;-70
2021/12/13 10:45:34;;;;;;;10.60;3.13;;;;;;;17.73;41.81;101922.41;4860332;29;20042;-70
2021/12/13 10:48:06;;;;;;;18.35;3.80;;;;;;;17.80;41.90;101924.66;4864860;29;20392;-70
2021/12/13 10:50:40;;;;;;;12.50;3.20;;;;;;;17.77;42.03;101928.09;4881436;29;20092;-71
2021/12/13 10:53:08;;;;;;;11.10;3.33;;;;;;;17.84;41.75;101922.84;4881673;29;20039;-70
2021/12/13 10:55:39;;;;;;;11.32;2.97;;;;;;;17.60;42.16;101926.16;4881593;29;20173;-70
2021/12/13 10:58:05;;;;;;;18.23;3.97;;;;;;;17.64;42.03;101922.41;4881553;29;20073;-71
2021/12/13 11:00:38;;;;;;;15.90;2.83;;;;;;;17.83;41.76;101927.53;4864763;29;20041;-71
2021/12/13 11:03:14;;;;;;;15.77;3.08;;;;;;;17.69;42.17;101921.44;4881540;29;20483;-70
2021/12/13 11:05:42;;;;;;;19.98;3.45;;;;;;;17.80;41.94;101919.13;4881609;29;20123;-70
2021/12/13 11:08:11;;;;;;;12.65;2.83;;;;;;;17.89;41.73;101914.34;4864673;29;20037;-72
2021/12/13 11:10:43;;;;;;;14.52;3.42;;;;;;;17.81;41.95;101912.44;4880997;29;20516;-72
2021/12/13 11:13:09;;;;;;;18.98;4.15;;;;;;;17.85;41.81;101907.88;4881259;29;20037;-72
2021/12/13 11:15:38;;;;;;;22.17;4.95;;;;;;;17.97;41.55;101899.66;4881454;29;20048;-72
2021/12/13 11:18:08;;;;;;;16.92;3.63;;;;;;;17.93;41.39;101909.78;4881153;29;20029;-71
2021/12/13 11:20:38;;;;;;;14.55;3.15;;;;;;;17.87;41.72;101908.34;4880948;29;20056;-71
2021/12/13 11:23:05;;;;;;;15.10;3.20;;;;;;;17.94;41.68;101914.16;4881141;29;20021;-71
2021/12/13 11:25:39;;;;;;;12.48;3.15;;;;;;;17.99;41.38;101916.75;4880717;29;20047;-70
2021/12/13 11:28:06;;;;;;;10.20;2.90;;;;;;;17.94;41.52;101917.72;4880644;29;20867;-70
2021/12/13 11:30:36;;;;;;;10.85;2.95;;;;;;;17.81;41.90;101907.72;4879504;29;20025;-71
2021/12/13 11:33:16;;;;;;;17.50;3.13;;;;;;;17.83;41.78;101912.91;4880967;29;20365;-71
2021/12/13 11:36:18;;;;;;;9.02;3.30;;;;;;;17.95;41.73;101907.47;4880962;29;20032;-70
2021/12/13 11:39:16;;;;;;;19.27;3.83;;;;;;;18.02;41.50;101905.81;4880988;29;20025;-70
2021/12/13 11:42:04;;;;;;;33.22;5.60;;;;;;;17.79;41.81;101909.19;4849198;29;20080;-71
2021/12/13 11:45:02;;;;;;;20.25;4.95;;;;;;;17.94;41.75;101914.16;4879500;29;20025;-72
2021/12/13 11:47:50;;;;;;;16.85;3.50;;;;;;;17.96;41.77;101920.97;4864096;29;20071;-72
2021/12/13 11:50:41;;;;;;;12.63;3.25;;;;;;;17.92;41.87;101917.25;4863645;29;20024;-71
2021/12/13 11:53:34;;;;;;;17.55;3.35;;;;;;;17.91;42.00;101920.34;4880529;29;20029;-72
2021/12/13 11:56:18;;;;;;;8.15;2.95;;;;;;;17.95;42.01;101915.78;4880666;29;20033;-71
2021/12/13 11:58:55;;;;;;;15.95;4.03;;;;;;;18.01;41.80;101928.28;4880445;29;20050;-71
2021/12/13 12:01:47;;;;;;;19.45;4.88;;;;;;;18.11;41.44;101925.09;4880524;29;20510;-71
2021/12/13 12:04:40;;;;;;;17.50;5.20;;;;;;;17.92;41.82;101924.75;4880391;29;20021;-71